Rankings de siempre
Mejores tiempos personales válidos de equipo a través de todos los eventos y temporadas. Cada equipo aparece una vez por división.
Busca por nombre y abre la página donde está clasificado este récord de división.
135,116 equipos clasificados
| Pos. | Pos. AG | Equipo | Nacionalidad | Categoría de edad | TiempoMejor tiempo | Diferencia |
|---|---|---|---|---|---|---|
| 133176 | #46441 | Callum Young & Ann-Marie CampbellGBR · X 30-34 · AG #46441 | GBR | X 30-34 | 2:08:45 | +79:32 |
| 133177 | #46442 | Shanelle Muller & Chad MullerRSA · X 30-34 · AG #46442 | RSA | X 30-34 | 2:08:45 | +79:32 |
| 133178 | #9112 | Paloma Bernal & Guillermo LoretoMEX · X 16-24 · AG #9112 | MEX | X 16-24 | 2:08:45 | +79:32 |
| 133179 | #46443 | Vartika Gupta & Nilav Kumar PyneIND · X 30-34 · AG #46443 | IND | X 30-34 | 2:08:46 | +79:33 |
| 133180 | #9113 | Milla van der Merwe & Dylan DesmoreRSA · X 16-24 · AG #9113 | RSA | X 16-24 | 2:08:46 | +79:33 |
| 133181 | #17971 | JHILIK SARKAR & DEB SARKARIND · X 40-44 · AG #17971 | IND | X 40-44 | 2:08:46 | +79:33 |
| 133182 | #17972 | Wendy Poh & Erwin MahdarSIN · X 40-44 · AG #17972 | SIN | X 40-44 | 2:08:47 | +79:34 |
| 133183 | #16665 | Adriana Rocha & HECTOR GUERRERO HERNANDEZMEX · X 35-39 · AG #16665 | MEX | X 35-39 | 2:08:48 | +79:35 |
| 133184 | #3150 | Nikki Grant & Neil GrantGBR · X 50-54 · AG #3150 | GBR | X 50-54 | 2:08:48 | +79:35 |
| 133185 | #46444 | Julio Mendoza & Eva Elena Rueda MoraMEX · X 30-34 · AG #46444 | MEX | X 30-34 | 2:08:48 | +79:35 |
| 133186 | #20374 | Itzamara Maricela Villa Paramo & Juan Porfirio Acevedo MartinezMEX · X 25-29 · AG #20374 | MEX | X 25-29 | 2:08:48 | +79:35 |
| 133187 | #20375 | Nehla Tiene & Guillaume MarieFRA · X 25-29 · AG #20375 | FRA | X 25-29 | 2:08:49 | +79:36 |
| 133188 | #46445 | Patrick YARIS & Vuong HOANGUSA · X 30-34 · AG #46445 | USA | X 30-34 | 2:08:50 | +79:37 |
| 133189 | #46446 | Alda Hamid & Lukita DewantiINA · X 30-34 · AG #46446 | INA | X 30-34 | 2:08:50 | +79:37 |
| 133190 | #20376 | Ricardo Andre Diaz Castillo & Pei-Syuan LiX 25-29 · AG #20376 | -- | X 25-29 | 2:08:50 | +79:37 |
| 133191 | #46447 | HOI YAN YUEN & YAN WAI SITHKG · X 30-34 · AG #46447 | HKG | X 30-34 | 2:08:50 | +79:37 |
| 133192 | #20377 | María Fernanda González & Eduardo GarcíaMEX · X 25-29 · AG #20377 | MEX | X 25-29 | 2:08:51 | +79:38 |
| 133193 | #20378 | Janell Gambrell & Albert ValverdeUSA · X 25-29 · AG #20378 | USA | X 25-29 | 2:08:52 | +79:39 |
| 133194 | #17973 | Sazali Ramli & Sonny YeSIN · X 40-44 · AG #17973 | SIN | X 40-44 | 2:08:52 | +79:39 |
| 133195 | #20379 | McCade Davis & Brooke TolmanUSA · X 25-29 · AG #20379 | USA | X 25-29 | 2:08:52 | +79:39 |
| 133196 | #20380 | Pablo Eliab Meza Ramirez & Quiana Iveth Zepeda WongMEX · X 25-29 · AG #20380 | MEX | X 25-29 | 2:08:53 | +79:40 |
| 133197 | #20381 | Rhiannon Barker & Joel BezusGBR · X 25-29 · AG #20381 | GBR | X 25-29 | 2:08:53 | +79:40 |
| 133198 | #17974 | Emily Wong & Xing Qi TanSIN · X 40-44 · AG #17974 | SIN | X 40-44 | 2:08:53 | +79:40 |
| 133199 | #3151 | Jared Silberhorn & Catherine SteffenUSA · X 50-54 · AG #3151 | USA | X 50-54 | 2:08:53 | +79:40 |
| 133200 | #46449 | Celinah Saleh & Majdi SalehX 30-34 · AG #46449 | -- | X 30-34 | 2:08:55 | +79:42 |
Página 5,328 de 5,405